Time;durP1;ratioP1;P1;durP2;ratioP2;P2;SDS_P1;SDS_P2;PMS_P1;PMS_P2;Temp;Humidity;BMP_temperature;BMP_pressure;BME280_temperature;BME280_humidity;BME280_pressure;Samples;Min_cycle;Max_cycle;Signal;HPM_P1;HPM_P2
2023/03/10 00:01:27;;;;;;;;;;;13.20;75.60;;;13.59;46.19;96746.88;5046329;27;118209;-69
2023/03/10 00:03:54;;;;;;;;;;;13.20;76.40;;;13.63;46.36;96744.94;5045815;27;118832;-70
2023/03/10 00:06:23;;;;;;;;;;;13.20;75.70;;;13.64;46.32;96746.53;5057175;27;124960;-70
2023/03/10 00:08:49;;;;;;;;;;;13.20;75.80;;;13.65;46.18;96730.69;5037359;27;123618;-70
2023/03/10 00:11:16;;;;;;;;;;;13.20;76.00;;;13.67;46.54;96722.75;5033373;27;119531;-70
2023/03/10 00:13:42;;;;;;;;;;;13.20;76.00;;;13.69;46.52;96712.06;5042305;27;118375;-70
2023/03/10 00:16:16;;;;;;;;;;;13.30;76.30;;;13.72;46.48;96705.75;5035557;27;124357;-71
2023/03/10 00:18:44;;;;;;;;;;;13.30;76.30;;;13.76;46.59;96700.25;5030497;27;123408;-72
2023/03/10 00:21:13;;;;;;;;;;;13.30;76.30;;;13.79;46.68;96696.69;5048686;27;120312;-71
2023/03/10 00:23:40;;;;;;;;;;;13.30;76.30;;;13.82;46.55;96690.38;5043372;27;119859;-71
2023/03/10 00:26:06;;;;;;;;;;;13.30;76.30;;;13.84;46.57;96694.34;5045469;27;124222;-71
2023/03/10 00:28:32;;;;;;;;;;;13.40;76.40;;;13.86;46.59;96685.63;5048220;27;124669;-71
2023/03/10 00:31:01;;;;;;;;;;;13.40;76.40;;;13.87;46.72;96687.25;5048989;27;119884;-71
2023/03/10 00:33:30;;;;;;;;;;;13.40;76.50;;;13.88;46.32;96678.50;5048697;27;118447;-71
2023/03/10 00:36:12;;;;;;;;;;;13.40;76.50;;;13.90;46.46;96672.59;5050287;27;124464;-71
2023/03/10 00:38:39;;;;;;;;;;;13.40;76.50;;;13.90;46.62;96669.81;5031407;27;123159;-71
2023/03/10 00:41:07;;;;;;;;;;;13.40;76.40;;;13.91;46.45;96654.72;5041768;27;119687;-71
2023/03/10 00:43:34;;;;;;;;;;;13.50;76.50;;;13.92;46.41;96650.78;5039154;27;118623;-71
2023/03/10 00:46:01;;;;;;;;;;;13.50;76.40;;;13.92;46.18;96648.00;5048316;27;124305;-70
2023/03/10 00:48:28;;;;;;;;;;;13.50;76.30;;;13.92;46.12;96640.47;5033030;27;124340;-71
2023/03/10 00:50:54;;;;;;;;;;;13.50;76.20;;;13.91;46.09;96654.72;5040286;27;119094;-71
2023/03/10 00:53:20;;;;;;;;;;;13.40;76.00;;;13.91;46.20;96644.41;5049044;27;119505;-71
2023/03/10 00:56:01;;;;;;;;;;;13.50;76.00;;;13.90;46.12;96640.06;5048231;27;124961;-71
2023/03/10 00:58:28;;;;;;;;;;;13.50;76.00;;;13.87;45.99;96643.63;5035587;27;124558;-71
2023/03/10 01:00:54;;;;;;;;;;;13.40;76.00;;;13.84;46.28;96643.59;5037833;27;119803;-71
2023/03/10 01:03:21;;;;;;;;;;;13.40;76.10;;;13.80;46.38;96637.22;5049013;27;118646;-71
2023/03/10 01:05:49;;;;;;;;;;;13.40;76.20;;;13.74;46.30;96633.22;5031050;27;123989;-71
2023/03/10 01:08:15;;;;;;;;;;;13.30;76.20;;;13.69;46.44;96632.38;5048070;27;122845;-71
2023/03/10 01:10:42;;;;;;;;;;;13.30;76.40;;;13.64;46.73;96624.44;5040540;27;120464;-71
2023/03/10 01:13:10;;;;;;;;;;;13.20;77.20;;;13.59;47.01;96610.13;5044763;27;119734;-71
2023/03/10 01:15:37;;;;;;;;;;;13.20;76.80;;;13.54;47.08;96614.06;5050394;27;124206;-71
2023/03/10 01:18:03;;;;;;;;;;;13.10;77.00;;;13.51;47.18;96614.03;5047403;27;123873;-71
2023/03/10 01:20:31;;;;;;;;;;;13.10;77.10;;;13.49;47.48;96603.34;5031876;27;118487;-71
2023/03/10 01:22:58;;;;;;;;;;;13.10;77.40;;;13.46;47.66;96595.78;5037066;27;118679;-71
2023/03/10 01:25:24;;;;;;;;;;;13.10;77.50;;;13.47;47.61;96591.81;5049565;27;123459;-71
2023/03/10 01:27:50;;;;;;;;;;;13.00;77.60;;;13.45;47.85;96606.06;5048842;27;124268;-71
2023/03/10 01:30:17;;;;;;;;;;;13.00;77.80;;;13.44;47.89;96600.91;5048211;27;119231;-71
2023/03/10 01:32:44;;;;;;;;;;;13.00;77.90;;;13.42;47.99;96611.59;5045236;27;119390;-71
2023/03/10 01:35:11;;;;;;;;;;;13.00;78.00;;;13.38;47.94;96611.56;5040857;27;124353;-71
2023/03/10 01:37:37;;;;;;;;;;;13.00;78.20;;;13.35;48.25;96601.25;5063099;27;123882;-71
2023/03/10 01:40:05;;;;;;;;;;;13.00;78.40;;;13.33;48.32;96598.06;5048085;27;119391;-71
2023/03/10 01:42:31;;;;;;;;;;;12.90;78.40;;;13.35;48.23;96587.38;5048332;27;118819;-71
2023/03/10 01:45:08;;;;;;;;;;;12.90;78.60;;;13.37;48.24;96578.66;5066298;27;124057;-71
2023/03/10 01:47:35;;;;;;;;;;;12.90;78.60;;;13.38;48.55;96583.84;5048260;27;123920;-71
2023/03/10 01:50:03;;;;;;;;;;;13.00;78.70;;;13.39;48.40;96585.41;5046733;27;119607;-71
2023/03/10 01:52:31;;;;;;;;;;;13.00;78.70;;;13.40;48.35;96575.13;5047840;27;118430;-71
2023/03/10 01:55:06;;;;;;;;;;;13.00;78.70;;;13.38;48.30;96583.03;5049511;27;124788;-71
2023/03/10 01:57:36;;;;;;;;;;;13.00;78.70;;;13.35;48.16;96575.47;5046835;27;125141;-69
2023/03/10 02:00:11;;;;;;;;;;;12.90;78.60;;;13.34;48.26;96571.13;5048113;27;121253;-69
2023/03/10 02:02:49;;;;;;;;;;;12.90;78.60;;;13.31;48.12;96560.81;5047221;27;119856;-70
2023/03/10 02:05:15;;;;;;;;;;;12.90;78.70;;;13.25;48.73;96565.88;5044974;27;124250;-69
2023/03/10 02:07:42;;;;;;;;;;;12.80;78.80;;;13.19;48.71;96557.13;5047561;27;123699;-71
2023/03/10 02:10:10;;;;;;;;;;;12.80;79.00;;;13.18;48.71;96558.28;5044392;27;119336;-71
2023/03/10 02:12:36;;;;;;;;;;;12.80;79.20;;;13.17;48.90;96545.63;5039745;27;119307;-70
2023/03/10 02:15:03;;;;;;;;;;;12.70;79.40;;;13.16;49.29;96546.00;5048423;27;123296;-70
2023/03/10 02:17:30;;;;;;;;;;;12.70;79.80;;;13.14;49.65;96563.03;5048926;27;123980;-70
2023/03/10 02:20:23;;;;;;;;;;;12.70;80.10;;;13.12;49.95;96557.06;5040918;27;119600;-70
2023/03/10 02:22:50;;;;;;;;;;;12.70;80.60;;;13.08;49.93;96547.91;5044917;27;118550;-70
2023/03/10 02:25:24;;;;;;;;;;;12.70;80.90;;;13.09;50.10;96557.06;5045481;27;124227;-70
2023/03/10 02:27:50;;;;;;;;;;;12.70;81.20;;;13.05;50.41;96557.78;5045954;27;123826;-70
2023/03/10 02:30:37;;;;;;;;;;;12.60;81.40;;;13.04;50.88;96555.41;5038556;27;119471;-70
2023/03/10 02:33:12;;;;;;;;;;;12.60;81.90;;;13.02;51.02;96561.34;5049306;27;119400;-71
2023/03/10 02:35:39;;;;;;;;;;;12.60;82.10;;;13.01;51.24;96554.22;5034736;27;124088;-77
2023/03/10 02:38:05;;;;;;;;;;;12.60;82.20;;;13.02;51.28;96549.44;5048753;27;124507;-70
2023/03/10 02:40:46;;;;;;;;;;;12.60;82.70;;;13.02;51.60;96555.00;5048056;27;119631;-70
2023/03/10 02:43:17;;;;;;;;;;;12.60;82.90;;;12.98;51.86;96559.72;5043378;27;119253;-70
2023/03/10 02:45:45;;;;;;;;;;;12.60;83.30;;;12.96;52.19;96545.47;5047908;27;124356;-70
2023/03/10 02:48:23;;;;;;;;;;;12.60;83.90;;;12.94;52.20;96547.81;5053646;27;123793;-71
2023/03/10 02:50:50;;;;;;;;;;;12.50;84.00;;;12.91;52.78;96548.56;5044104;27;121053;-70
2023/03/10 02:53:19;;;;;;;;;;;12.50;84.30;;;12.88;52.96;96541.03;5043242;27;119650;-70
2023/03/10 02:55:46;;;;;;;;;;;12.50;84.70;;;12.88;53.03;96527.97;5045524;27;124317;-70
2023/03/10 02:58:13;;;;;;;;;;;12.50;84.70;;;12.88;53.12;96532.72;5045922;27;123572;-70
2023/03/10 03:00:40;;;;;;;;;;;12.50;85.00;;;12.89;53.31;96520.44;5045570;27;119417;-70
2023/03/10 03:03:08;;;;;;;;;;;12.50;85.40;;;12.88;53.41;96511.34;5044166;27;118590;-70
2023/03/10 03:05:37;;;;;;;;;;;12.50;85.90;;;12.86;53.70;96507.34;5043595;27;124407;-70
2023/03/10 03:08:04;;;;;;;;;;;12.50;86.10;;;12.84;53.91;96527.13;5044740;27;124191;-70
2023/03/10 03:10:31;;;;;;;;;;;12.40;86.20;;;12.82;54.21;96533.06;5050453;27;119569;-70
2023/03/10 03:12:57;;;;;;;;;;;12.40;86.60;;;12.80;54.52;96531.84;5023863;27;118254;-70
2023/03/10 03:15:24;;;;;;;;;;;12.40;87.10;;;12.77;54.67;96544.50;5045886;27;124740;-70
2023/03/10 03:17:53;;;;;;;;;;;12.40;87.40;;;12.71;55.26;96543.28;5046233;27;123852;-70
2023/03/10 03:20:20;;;;;;;;;;;12.30;87.90;;;12.68;55.05;96529.38;5045401;27;119690;-70
2023/03/10 03:22:46;;;;;;;;;;;12.30;88.00;;;12.65;55.58;96536.47;5048160;27;118820;-70
2023/03/10 03:25:16;;;;;;;;;;;12.30;88.30;;;12.63;55.07;96533.31;5049116;27;124979;-70
2023/03/10 03:27:43;;;;;;;;;;;12.20;88.30;;;12.60;55.36;96534.84;5045277;27;124112;-70
2023/03/10 03:30:15;;;;;;;;;;;12.20;88.50;;;12.63;55.58;96521.41;5045030;27;120044;-70
2023/03/10 03:32:41;;;;;;;;;;;12.20;88.40;;;12.65;55.45;96521.81;5046301;27;119111;-70
2023/03/10 03:35:11;;;;;;;;;;;12.20;88.50;;;12.68;55.34;96519.09;5047494;27;123367;-70
2023/03/10 03:37:37;;;;;;;;;;;12.20;88.60;;;12.69;55.30;96512.38;5047317;27;123978;-70
2023/03/10 03:40:11;;;;;;;;;;;12.30;89.40;;;12.70;55.44;96505.63;5047451;27;119834;-70
2023/03/10 03:42:39;;;;;;;;;;;12.30;88.90;;;12.72;55.42;96491.41;5064316;27;119642;-70
2023/03/10 03:45:07;;;;;;;;;;;12.30;89.00;;;12.72;55.66;96499.72;5046521;27;124887;-70
2023/03/10 03:47:33;;;;;;;;;;;12.30;89.00;;;12.72;55.31;96500.53;5048319;27;123135;-70
2023/03/10 03:50:00;;;;;;;;;;;12.30;89.00;;;12.74;55.59;96503.72;5038200;27;119482;-70
2023/03/10 03:52:26;;;;;;;;;;;12.30;89.00;;;12.77;55.34;96504.91;5046681;27;118564;-70
2023/03/10 03:54:53;;;;;;;;;;;12.30;89.00;;;12.80;55.43;96506.91;5047548;27;125272;-71
2023/03/10 03:57:19;;;;;;;;;;;12.40;89.10;;;12.82;55.27;96493.47;5050890;27;124164;-70
2023/03/10 03:59:45;;;;;;;;;;;12.40;89.10;;;12.83;55.35;96492.28;5029365;27;117647;-70
2023/03/10 04:02:12;;;;;;;;;;;12.40;89.20;;;12.82;55.35;96491.50;5045219;27;118529;-71
2023/03/10 04:04:38;;;;;;;;;;;12.40;89.20;;;12.83;55.38;96486.75;5040449;27;123154;-70
2023/03/10 04:07:04;;;;;;;;;;;12.40;89.20;;;12.81;55.50;96495.47;5044777;27;125674;-70
2023/03/10 04:09:31;;;;;;;;;;;12.40;89.30;;;12.83;55.37;96486.75;5045894;27;119403;-71
2023/03/10 04:11:57;;;;;;;;;;;12.40;89.30;;;12.82;55.47;96485.97;5060713;27;119010;-70
2023/03/10 04:14:23;;;;;;;;;;;12.40;89.40;;;12.81;55.50;96484.38;5041501;27;124562;-71
2023/03/10 04:16:50;;;;;;;;;;;12.40;89.50;;;12.79;55.48;96481.19;5059723;27;124318;-70
2023/03/10 04:19:16;;;;;;;;;;;12.40;89.50;;;12.80;55.33;96479.22;5046334;27;119703;-70
2023/03/10 04:21:42;;;;;;;;;;;12.40;89.60;;;12.79;55.56;96477.63;5038226;27;118544;-70
2023/03/10 04:24:08;;;;;;;;;;;12.30;89.60;;;12.79;55.38;96474.84;5045656;27;124199;-71
2023/03/10 04:26:35;;;;;;;;;;;12.30;89.60;;;12.79;55.43;96478.41;5023493;27;123169;-70
2023/03/10 04:29:01;;;;;;;;;;;12.40;89.70;;;12.79;55.72;96475.66;5044597;27;120543;-70
2023/03/10 04:31:27;;;;;;;;;;;12.30;89.70;;;12.79;55.63;96480.41;5043143;27;119566;-70
2023/03/10 04:33:54;;;;;;;;;;;12.40;89.90;;;12.76;55.73;96479.19;5032768;27;124359;-70
2023/03/10 04:36:20;;;;;;;;;;;12.30;89.90;;;12.74;55.85;96489.06;5045762;27;122857;-70
2023/03/10 04:38:47;;;;;;;;;;;12.30;90.00;;;12.74;55.80;96483.53;5028582;27;118872;-70
2023/03/10 04:41:13;;;;;;;;;;;12.30;90.00;;;12.73;55.79;96474.41;5029612;27;118443;-70
2023/03/10 04:43:40;;;;;;;;;;;12.30;90.00;;;12.73;55.82;96476.38;5041981;27;124215;-71
2023/03/10 04:46:06;;;;;;;;;;;12.30;90.10;;;12.71;55.84;96479.53;5043442;27;123649;-70
2023/03/10 04:48:32;;;;;;;;;;;12.30;90.10;;;12.72;56.33;96472.03;5039234;27;118365;-71
2023/03/10 04:51:11;;;;;;;;;;;12.30;90.10;;;12.74;55.81;96478.78;5045934;27;118888;-71
2023/03/10 04:53:38;;;;;;;;;;;12.30;90.20;;;12.73;55.98;96477.16;5030838;27;123957;-72
2023/03/10 04:56:07;;;;;;;;;;;12.30;90.20;;;12.76;55.85;96478.38;5030595;27;124668;-71
2023/03/10 04:58:34;;;;;;;;;;;12.30;90.20;;;12.76;56.02;96465.34;5045093;27;119508;-71
2023/03/10 05:01:00;;;;;;;;;;;12.30;90.20;;;12.75;56.05;96474.03;5046153;27;118899;-71
2023/03/10 05:03:26;;;;;;;;;;;12.30;90.20;;;12.74;56.05;96455.81;5044146;27;124145;-72
2023/03/10 05:05:53;;;;;;;;;;;12.30;90.20;;;12.73;56.10;96455.00;5042455;27;124078;-72
2023/03/10 05:08:19;;;;;;;;;;;12.30;90.30;;;12.73;56.01;96455.00;5035188;27;118657;-71
2023/03/10 05:10:46;;;;;;;;;;;12.30;90.30;;;12.70;56.00;96444.69;5044138;27;118624;-71
2023/03/10 05:13:13;;;;;;;;;;;12.30;90.30;;;12.70;56.14;96444.69;5050312;27;123744;-71
2023/03/10 05:15:40;;;;;;;;;;;12.20;90.30;;;12.67;56.26;96442.69;5033342;27;122179;-71
2023/03/10 05:18:08;;;;;;;;;;;12.20;90.30;;;12.67;56.15;96444.66;5048278;27;120531;-71
2023/03/10 05:20:34;;;;;;;;;;;12.20;90.30;;;12.66;56.24;96437.56;5043564;27;119815;-71
2023/03/10 05:23:02;;;;;;;;;;;12.20;90.40;;;12.65;56.51;96433.16;5033244;27;123602;-72
2023/03/10 05:25:28;;;;;;;;;;;12.20;90.60;;;12.61;56.30;96430.38;5057478;27;123936;-71
2023/03/10 05:27:54;;;;;;;;;;;12.20;90.50;;;12.59;56.32;96427.19;5049803;27;118656;-71
2023/03/10 05:30:21;;;;;;;;;;;12.20;90.50;;;12.56;56.67;96419.66;5058357;27;118911;-71
2023/03/10 05:32:47;;;;;;;;;;;12.10;90.50;;;12.56;56.59;96414.13;5045609;27;124982;-74
2023/03/10 05:35:14;;;;;;;;;;;12.10;90.50;;;12.53;56.49;96414.88;5051560;27;123386;-71
2023/03/10 05:37:59;;;;;;;;;;;12.10;90.50;;;12.51;56.36;96406.16;5055099;27;119552;-77
2023/03/10 05:40:25;;;;;;;;;;;12.10;90.50;;;12.48;56.47;96420.78;5051995;27;118769;-73
2023/03/10 05:42:51;;;;;;;;;;;12.10;90.50;;;12.48;56.34;96412.47;5048863;27;124150;-71
2023/03/10 05:45:18;;;;;;;;;;;12.10;90.60;;;12.48;56.30;96431.84;5049571;27;124407;-71
2023/03/10 05:47:45;;;;;;;;;;;12.10;90.60;;;12.47;56.41;96427.50;5049121;27;119493;-71
2023/03/10 05:50:14;;;;;;;;;;;12.00;90.60;;;12.43;56.42;96424.69;5049385;27;119003;-71
2023/03/10 05:52:42;;;;;;;;;;;12.00;90.60;;;12.40;56.80;96417.16;5055645;27;124253;-71
2023/03/10 05:55:14;;;;;;;;;;;12.00;90.60;;;12.41;56.88;96417.94;5051789;27;123762;-72
2023/03/10 05:57:40;;;;;;;;;;;12.00;90.70;;;12.37;56.85;96418.72;5046705;27;119474;-71
2023/03/10 06:00:11;;;;;;;;;;;12.00;90.70;;;12.36;56.79;96417.13;5048081;27;119318;-71
2023/03/10 06:02:39;;;;;;;;;;;12.00;90.70;;;12.35;56.69;96390.59;5043936;27;124136;-71
2023/03/10 06:05:08;;;;;;;;;;;11.90;91.00;;;12.36;56.80;96389.44;5060018;27;123959;-71
2023/03/10 06:07:34;;;;;;;;;;;11.90;90.70;;;12.40;56.87;96391.44;5046439;27;120418;-71
2023/03/10 06:10:01;;;;;;;;;;;12.00;90.80;;;12.44;56.62;96392.25;5043411;27;119709;-71
2023/03/10 06:12:27;;;;;;;;;;;12.00;90.80;;;12.47;56.61;96392.28;5043218;27;124185;-71
2023/03/10 06:14:53;;;;;;;;;;;12.00;90.80;;;12.48;56.68;96393.88;5047119;27;123806;-71
2023/03/10 06:17:19;;;;;;;;;;;12.00;90.80;;;12.50;56.46;96383.22;5032146;27;118826;-71
2023/03/10 06:19:46;;;;;;;;;;;12.00;90.80;;;12.52;56.81;96389.16;5062767;27;119537;-72
2023/03/10 06:22:12;;;;;;;;;;;12.10;90.80;;;12.53;56.59;96398.28;5059203;27;124520;-71
2023/03/10 06:24:39;;;;;;;;;;;12.10;90.90;;;12.50;57.02;96396.28;5046539;27;124448;-74
2023/03/10 06:27:05;;;;;;;;;;;12.00;91.00;;;12.46;57.53;96393.47;5048401;27;119473;-74
2023/03/10 06:29:32;;;;;;;;;;;12.00;91.40;;;12.36;58.42;96375.59;5034995;27;119262;-72
2023/03/10 06:31:58;;;;;;;;;;;11.90;91.70;;;12.26;58.86;96370.75;5032228;27;124250;-71
2023/03/10 06:34:24;;;;;;;;;;;11.80;92.10;;;12.18;59.37;96344.22;5037821;27;125067;-71
2023/03/10 06:36:51;;;;;;;;;;;11.80;92.30;;;12.08;59.68;96326.31;5028200;28;118655;-71
2023/03/10 06:39:17;;;;;;;;;;;11.70;92.40;;;12.04;59.60;96313.66;5043495;27;118426;-71
2023/03/10 06:41:43;;;;;;;;;;;11.60;92.40;;;12.01;59.47;96292.25;5044691;27;124222;-71
2023/03/10 06:44:17;;;;;;;;;;;11.60;92.50;;;11.97;59.67;96308.06;5045704;27;124061;-70
2023/03/10 06:46:45;;;;;;;;;;;11.50;92.50;;;11.91;59.60;96313.16;5044343;27;119341;-69
2023/03/10 06:49:11;;;;;;;;;;;11.50;92.50;;;11.86;59.41;96336.41;5034241;27;118872;-70
2023/03/10 06:51:38;;;;;;;;;;;11.40;92.40;;;11.78;59.36;96345.81;5043146;27;124789;-68
2023/03/10 06:54:04;;;;;;;;;;;11.40;92.30;;;11.71;59.53;96327.19;5036769;27;124277;-69
2023/03/10 06:56:31;;;;;;;;;;;11.30;92.30;;;11.66;59.51;96338.59;5030169;27;120471;-70
2023/03/10 06:58:58;;;;;;;;;;;11.30;92.40;;;11.63;59.35;96344.06;5044281;27;119802;-68
2023/03/10 07:01:27;;;;;;;;;;;11.20;92.40;;;11.60;59.67;96336.53;5030150;27;124204;-69
2023/03/10 07:03:54;;;;;;;;;;;11.20;92.50;;;11.58;59.94;96342.44;5030299;27;123987;-69
2023/03/10 07:06:20;;;;;;;;;;;11.20;92.60;;;11.63;60.12;96346.81;5031539;27;119508;-71
2023/03/10 07:08:47;;;;;;;;;;;11.20;92.60;;;11.66;59.74;96344.13;5026443;27;119987;-69
2023/03/10 07:11:14;;;;;;;;;;;11.20;92.70;;;11.70;59.87;96355.22;5024943;27;123844;-68
2023/03/10 07:13:40;;;;;;;;;;;11.30;92.70;;;11.72;59.76;96348.13;5027770;27;123426;-72
2023/03/10 07:16:07;;;;;;;;;;;11.30;92.70;;;11.77;59.64;96337.88;5032783;27;118689;-69
2023/03/10 07:18:33;;;;;;;;;;;11.30;92.70;;;11.81;59.67;96339.50;5028759;27;117740;-70
2023/03/10 07:21:00;;;;;;;;;;;11.40;92.80;;;11.85;59.70;96342.31;5040149;27;124556;-69
2023/03/10 07:23:26;;;;;;;;;;;11.40;92.80;;;11.86;59.92;96339.19;5017776;27;122928;-70
2023/03/10 07:25:55;;;;;;;;;;;11.40;92.80;;;11.89;59.93;96337.63;5026584;27;119626;-70
2023/03/10 07:28:23;;;;;;;;;;;11.40;92.80;;;11.96;59.54;96350.75;5031042;27;118751;-70
2023/03/10 07:30:49;;;;;;;;;;;11.50;92.90;;;12.01;59.74;96364.22;5021999;27;123811;-69
2023/03/10 07:33:16;;;;;;;;;;;11.50;92.90;;;12.06;59.43;96363.84;5012337;27;123059;-69
2023/03/10 07:35:42;;;;;;;;;;;11.60;92.90;;;12.11;59.34;96366.28;5031042;27;119813;-70
2023/03/10 07:38:09;;;;;;;;;;;11.70;92.90;;;12.13;59.64;96373.03;5014514;27;118584;-68
2023/03/10 07:40:35;;;;;;;;;;;11.70;92.90;;;12.19;59.59;96375.44;5029019;27;123074;-68
2023/03/10 07:43:01;;;;;;;;;;;11.70;93.00;;;12.24;59.98;96356.50;5027212;27;124156;-66
2023/03/10 07:45:29;;;;;;;;;;;11.70;93.20;;;12.37;60.82;96360.56;5027526;27;120432;-66
2023/03/10 07:47:58;;;;;;;;;;;11.80;93.70;;;12.57;60.64;96374.16;5045195;27;119547;-67
2023/03/10 07:50:25;;;;;;;;;;;12.00;93.90;;;12.67;60.38;96362.34;5032769;27;124596;-67
2023/03/10 07:52:51;;;;;;;;;;;12.10;93.90;;;12.71;60.41;96360.41;5028385;27;124636;-67
2023/03/10 07:55:17;;;;;;;;;;;12.10;93.80;;;12.78;59.86;96374.28;5043291;27;119626;-68
2023/03/10 07:57:44;;;;;;;;;;;12.20;93.80;;;12.83;59.98;96376.69;5027834;27;119142;-68
2023/03/10 08:00:10;;;;;;;;;;;12.20;93.80;;;12.85;59.81;96372.75;5042862;27;124145;-68
2023/03/10 08:02:37;;;;;;;;;;;12.30;93.60;;;12.87;60.13;96370.38;5045208;27;123669;-67
2023/03/10 08:05:04;;;;;;;;;;;12.30;93.70;;;12.89;59.91;96381.88;5039756;27;119426;-67
2023/03/10 08:07:30;;;;;;;;;;;12.40;93.70;;;12.82;59.81;96394.50;5040694;27;118618;-68
2023/03/10 08:09:57;;;;;;;;;;;12.30;93.60;;;12.70;60.12;96410.66;5036705;27;124870;-74
2023/03/10 08:12:23;;;;;;;;;;;12.20;93.60;;;12.55;60.15;96415.31;5039368;27;125469;-71
2023/03/10 08:14:50;;;;;;;;;;;12.20;93.60;;;12.42;60.37;96406.50;5024186;27;118526;-71
2023/03/10 08:17:17;;;;;;;;;;;12.10;93.50;;;12.31;60.41;96411.94;5033265;27;119228;-70
2023/03/10 08:19:43;;;;;;;;;;;11.90;93.40;;;12.20;60.30;96427.66;5029900;27;124237;-71
2023/03/10 08:22:09;;;;;;;;;;;11.90;93.50;;;12.09;60.51;96410.16;5013200;27;123416;-71
2023/03/10 08:24:36;;;;;;;;;;;11.80;93.50;;;12.01;60.47;96402.94;5036585;27;119913;-71
2023/03/10 08:27:04;;;;;;;;;;;11.70;93.50;;;11.91;60.91;96410.78;5056748;27;117954;-71
2023/03/10 08:29:30;;;;;;;;;;;11.60;93.60;;;11.84;60.62;96407.09;5043072;27;124330;-71
2023/03/10 08:31:56;;;;;;;;;;;11.50;93.60;;;11.77;60.59;96413.38;5035000;27;124226;-70
2023/03/10 08:34:23;;;;;;;;;;;11.40;93.60;;;11.71;60.57;96428.69;5044359;27;120455;-70
2023/03/10 08:36:49;;;;;;;;;;;11.40;93.60;;;11.65;60.99;96419.16;5043506;27;119821;-71
2023/03/10 08:39:16;;;;;;;;;;;11.30;93.60;;;11.63;61.02;96429.78;5043693;27;124108;-71
2023/03/10 08:41:48;;;;;;;;;;;11.30;93.70;;;11.59;61.29;96423.44;5042390;27;123033;-69
2023/03/10 08:44:16;;;;;;;;;;;11.20;93.80;;;11.58;61.37;96424.59;5037479;27;119629;-71
2023/03/10 08:46:45;;;;;;;;;;;11.20;93.80;;;11.61;61.24;96434.94;5045050;27;118443;-76
2023/03/10 08:49:13;;;;;;;;;;;11.20;93.90;;;11.67;61.09;96428.66;5052673;27;124209;-73
2023/03/10 08:51:40;;;;;;;;;;;11.20;93.90;;;11.77;61.16;96443.81;5055991;27;124760;-71
2023/03/10 08:54:07;;;;;;;;;;;11.30;94.10;;;11.81;61.27;96422.50;5049044;27;119714;-71
2023/03/10 08:56:34;;;;;;;;;;;11.40;94.10;;;11.87;61.16;96420.22;5048561;27;118857;-70
2023/03/10 08:59:00;;;;;;;;;;;11.40;94.20;;;11.91;61.31;96421.06;5037045;27;124442;-71
2023/03/10 09:01:29;;;;;;;;;;;11.40;94.10;;;11.93;61.19;96438.88;5044440;27;124632;-71
2023/03/10 09:03:56;;;;;;;;;;;11.50;94.20;;;11.99;61.16;96439.31;5032240;27;118394;-70
2023/03/10 09:06:23;;;;;;;;;;;11.50;94.20;;;12.03;61.32;96444.88;5064269;27;118544;-70
2023/03/10 09:08:50;;;;;;;;;;;11.60;94.20;;;12.07;61.38;96445.72;5046980;27;123962;-70
2023/03/10 09:11:23;;;;;;;;;;;11.60;94.20;;;12.11;61.22;96454.84;5048883;27;124122;-72
2023/03/10 09:13:49;;;;;;;;;;;11.60;94.20;;;12.20;61.35;96449.00;5047012;27;119623;-70
2023/03/10 09:16:16;;;;;;;;;;;11.70;94.30;;;12.28;61.08;96445.94;5046596;27;119131;-71
2023/03/10 09:18:42;;;;;;;;;;;11.80;94.30;;;12.40;60.96;96442.06;5048065;27;124860;-71
2023/03/10 09:21:12;;;;;;;;;;;11.90;94.40;;;12.53;60.86;96440.59;5046099;27;124642;-72
2023/03/10 09:23:40;;;;;;;;;;;11.90;94.30;;;12.60;60.58;96439.88;5047909;27;120343;-71
2023/03/10 09:26:06;;;;;;;;;;;12.00;94.20;;;12.66;60.22;96440.31;5038617;27;119378;-71
2023/03/10 09:28:33;;;;;;;;;;;12.10;94.10;;;12.73;60.27;96443.91;5049991;27;124908;-71
2023/03/10 09:30:59;;;;;;;;;;;12.20;94.10;;;12.83;60.13;96440.44;5049200;27;124665;-71
2023/03/10 09:33:26;;;;;;;;;;;12.20;94.10;;;12.89;59.88;96440.06;5046020;27;120022;-71
2023/03/10 09:35:52;;;;;;;;;;;12.30;94.00;;;12.96;59.98;96445.69;5031993;27;117482;-71
2023/03/10 09:38:18;;;;;;;;;;;12.40;94.00;;;12.99;59.40;96450.44;5041150;27;123377;-72
2023/03/10 09:40:49;;;;;;;;;;;12.40;93.80;;;13.01;58.44;96453.63;5047369;27;124023;-72
2023/03/10 09:43:18;;;;;;;;;;;12.50;93.40;;;13.01;57.20;96456.41;5041687;27;119414;-70
2023/03/10 09:45:51;;;;;;;;;;;12.50;92.60;;;12.99;56.74;96444.91;5044770;27;118715;-72
2023/03/10 09:48:50;;;;;;;;;;;12.50;92.20;;;12.99;56.74;96450.44;5043834;27;123369;-71
2023/03/10 09:51:27;;;;;;;;;;;12.50;92.20;;;12.98;56.66;96455.19;5045197;27;124037;-71
2023/03/10 09:54:34;;;;;;;;;;;12.50;92.00;;;12.97;56.57;96441.72;5050092;27;119463;-71
2023/03/10 09:57:03;;;;;;;;;;;12.50;91.90;;;12.95;57.27;96439.34;5045547;27;118842;-71
2023/03/10 09:59:34;;;;;;;;;;;12.50;92.00;;;12.97;57.21;96442.50;5046608;27;124371;-71
2023/03/10 10:02:12;;;;;;;;;;;12.50;92.10;;;12.98;57.47;96449.66;5028983;27;127370;-71
2023/03/10 10:04:40;;;;;;;;;;;12.60;92.20;;;13.05;57.33;96459.97;5032193;27;117496;-71
2023/03/10 10:07:13;;;;;;;;;;;12.60;92.20;;;13.14;56.86;96452.13;5039000;27;118937;-71
2023/03/10 10:09:52;;;;;;;;;;;13.90;92.70;;;13.17;56.74;96445.81;5044927;27;124100;-73
2023/03/10 10:12:22;;;;;;;;;;;12.70;92.00;;;13.16;56.60;96441.44;5041938;27;122838;-71
2023/03/10 10:14:54;;;;;;;;;;;12.70;91.90;;;13.18;56.60;96441.84;5046411;27;120951;-71
2023/03/10 10:17:28;;;;;;;;;;;12.70;91.90;;;13.24;56.72;96445.84;5046689;27;119825;-72
2023/03/10 10:19:56;;;;;;;;;;;12.80;92.00;;;13.28;56.60;96439.56;5040306;27;124053;-71
2023/03/10 10:22:26;;;;;;;;;;;12.80;91.90;;;13.31;56.29;96438.78;5044409;27;124552;-71
2023/03/10 10:25:07;;;;;;;;;;;12.80;91.80;;;13.31;56.45;96433.22;5026643;27;118292;-73
2023/03/10 10:27:35;;;;;;;;;;;12.80;91.80;;;13.33;56.19;96442.75;5003188;28;118822;-71
2023/03/10 10:30:25;;;;;;;;;;;12.90;91.80;;;13.34;55.98;96438.00;5002558;28;124470;-70
2023/03/10 10:32:55;;;;;;;;;;;12.90;91.60;;;13.33;56.16;96436.41;5006280;28;123820;-70
2023/03/10 10:35:24;;;;;;;;;;;12.90;91.70;;;13.33;55.96;96433.66;5002786;28;119470;-70
2023/03/10 10:38:04;;;;;;;;;;;12.90;91.60;;;13.30;55.71;96442.72;4991921;28;118504;-70
2023/03/10 10:40:58;;;;;;;;;;;12.90;91.40;;;13.24;55.71;96439.50;5006014;28;124291;-70
2023/03/10 10:43:24;;;;;;;;;;;12.80;91.30;;;13.16;55.72;96446.97;4983777;28;123745;-70
2023/03/10 10:45:57;;;;;;;;;;;12.70;91.30;;;13.13;55.69;96436.66;5005054;28;120707;-71
2023/03/10 10:49:02;;;;;;;;;;;12.70;91.30;;;13.11;56.15;96432.69;4996477;28;119398;-76
2023/03/10 10:51:34;;;;;;;;;;;12.70;91.40;;;13.12;56.21;96431.50;5006799;28;123335;-71
2023/03/10 10:54:26;;;;;;;;;;;12.70;91.50;;;13.15;56.39;96434.31;5014058;28;124519;-70
2023/03/10 10:56:58;;;;;;;;;;;12.70;91.60;;;13.18;56.48;96447.38;5010344;28;119264;-71
2023/03/10 10:59:32;;;;;;;;;;;12.70;91.70;;;13.22;56.42;96441.88;5006300;28;118763;-71
2023/03/10 11:02:01;;;;;;;;;;;12.80;91.70;;;13.22;56.33;96431.56;4988630;28;123225;-72
2023/03/10 11:04:44;;;;;;;;;;;12.80;91.60;;;13.22;56.43;96428.00;5019299;28;124117;-71
2023/03/10 11:07:39;;;;;;;;;;;12.80;91.60;;;13.20;56.63;96438.69;5006982;28;119656;-71
2023/03/10 11:10:29;;;;;;;;;;;12.80;91.70;;;13.21;56.45;96449.38;4991572;28;119458;-70
2023/03/10 11:13:07;;;;;;;;;;;12.80;91.70;;;13.21;56.19;96443.84;4998047;28;124043;-71
2023/03/10 11:15:58;;;;;;;;;;;12.80;91.60;;;13.19;55.95;96453.72;4972864;28;122834;-71
2023/03/10 11:18:37;;;;;;;;;;;12.80;91.50;;;13.17;55.98;96451.34;5006461;28;119758;-71